sensor_id;sensor_type;location;lat;lon;timestamp;pressure;altitude;pressure_sealevel;temperature;humidity
55277;BME280;41136;51.478;-2.610;2023-08-20T00:01:28;101028.21;;;20.56;100.00
55277;BME280;41136;51.478;-2.610;2023-08-20T00:03:53;101029.60;;;20.93;100.00
55277;BME280;41136;51.478;-2.610;2023-08-20T00:06:18;101030.68;;;19.98;100.00
55277;BME280;41136;51.478;-2.610;2023-08-20T00:08:43;101030.01;;;20.42;100.00
55277;BME280;41136;51.478;-2.610;2023-08-20T00:11:08;101037.59;;;20.66;100.00
55277;BME280;41136;51.478;-2.610;2023-08-20T00:13:33;101040.58;;;20.37;100.00
55277;BME280;41136;51.478;-2.610;2023-08-20T00:15:59;101043.10;;;20.52;100.00
55277;BME280;41136;51.478;-2.610;2023-08-20T00:18:24;101040.90;;;20.02;100.00
55277;BME280;41136;51.478;-2.610;2023-08-20T00:20:50;101045.45;;;19.27;100.00
55277;BME280;41136;51.478;-2.610;2023-08-20T00:23:16;101040.38;;;19.99;100.00
55277;BME280;41136;51.478;-2.610;2023-08-20T00:25:41;101044.50;;;19.88;100.00
55277;BME280;41136;51.478;-2.610;2023-08-20T00:28:05;101045.26;;;20.20;100.00
55277;BME280;41136;51.478;-2.610;2023-08-20T00:30:31;101046.51;;;20.43;100.00
55277;BME280;41136;51.478;-2.610;2023-08-20T00:32:57;101046.41;;;20.34;100.00
55277;BME280;41136;51.478;-2.610;2023-08-20T00:40:49;101050.92;;;20.00;100.00
55277;BME280;41136;51.478;-2.610;2023-08-20T00:43:14;101049.50;;;19.26;100.00
55277;BME280;41136;51.478;-2.610;2023-08-20T00:45:41;101052.10;;;19.71;100.00
55277;BME280;41136;51.478;-2.610;2023-08-20T00:48:05;101052.32;;;20.47;99.43
55277;BME280;41136;51.478;-2.610;2023-08-20T00:50:30;101055.75;;;21.75;97.61
55277;BME280;41136;51.478;-2.610;2023-08-20T00:52:55;101054.50;;;21.41;98.39
55277;BME280;41136;51.478;-2.610;2023-08-20T00:55:20;101057.98;;;21.09;98.81
55277;BME280;41136;51.478;-2.610;2023-08-20T00:57:46;101062.71;;;21.09;99.71
55277;BME280;41136;51.478;-2.610;2023-08-20T01:00:11;101061.23;;;21.20;99.92
55277;BME280;41136;51.478;-2.610;2023-08-20T01:02:36;101068.91;;;20.63;100.00
55277;BME280;41136;51.478;-2.610;2023-08-20T01:05:02;101071.74;;;20.74;100.00
55277;BME280;41136;51.478;-2.610;2023-08-20T01:07:30;101069.00;;;20.66;100.00
55277;BME280;41136;51.478;-2.610;2023-08-20T01:09:57;101071.37;;;20.72;100.00
55277;BME280;41136;51.478;-2.610;2023-08-20T01:12:18;101072.65;;;20.11;100.00
55277;BME280;41136;51.478;-2.610;2023-08-20T01:14:42;101070.36;;;20.42;100.00
55277;BME280;41136;51.478;-2.610;2023-08-20T01:17:08;101070.48;;;20.03;100.00
55277;BME280;41136;51.478;-2.610;2023-08-20T01:19:33;101067.94;;;18.96;100.00
55277;BME280;41136;51.478;-2.610;2023-08-20T01:22:13;101061.86;;;20.27;100.00
55277;BME280;41136;51.478;-2.610;2023-08-20T01:24:34;101065.50;;;19.59;100.00
55277;BME280;41136;51.478;-2.610;2023-08-20T01:27:02;101064.32;;;19.52;100.00
55277;BME280;41136;51.478;-2.610;2023-08-20T01:29:14;101063.70;;;19.79;100.00
55277;BME280;41136;51.478;-2.610;2023-08-20T01:31:40;101065.16;;;19.38;100.00
55277;BME280;41136;51.478;-2.610;2023-08-20T01:34:05;101060.22;;;20.03;100.00
55277;BME280;41136;51.478;-2.610;2023-08-20T01:36:30;101058.88;;;19.76;100.00
55277;BME280;41136;51.478;-2.610;2023-08-20T01:38:55;101059.02;;;20.53;100.00
55277;BME280;41136;51.478;-2.610;2023-08-20T01:41:21;101058.70;;;20.74;100.00
55277;BME280;41136;51.478;-2.610;2023-08-20T01:43:46;101061.24;;;20.78;100.00
55277;BME280;41136;51.478;-2.610;2023-08-20T01:46:11;101058.31;;;20.77;100.00
55277;BME280;41136;51.478;-2.610;2023-08-20T01:48:36;101063.47;;;20.71;100.00
55277;BME280;41136;51.478;-2.610;2023-08-20T01:51:02;101064.26;;;20.72;100.00
55277;BME280;41136;51.478;-2.610;2023-08-20T01:53:27;101065.94;;;20.80;100.00
55277;BME280;41136;51.478;-2.610;2023-08-20T01:55:53;101067.62;;;20.79;100.00
55277;BME280;41136;51.478;-2.610;2023-08-20T01:58:18;101071.13;;;20.33;100.00
55277;BME280;41136;51.478;-2.610;2023-08-20T02:00:45;101076.36;;;20.68;100.00
55277;BME280;41136;51.478;-2.610;2023-08-20T02:03:09;101079.05;;;20.62;100.00
55277;BME280;41136;51.478;-2.610;2023-08-20T02:05:34;101083.94;;;20.16;100.00
55277;BME280;41136;51.478;-2.610;2023-08-20T02:07:59;101081.37;;;19.86;100.00
55277;BME280;41136;51.478;-2.610;2023-08-20T02:10:24;101081.38;;;20.70;100.00
55277;BME280;41136;51.478;-2.610;2023-08-20T02:12:50;101084.90;;;20.59;100.00
55277;BME280;41136;51.478;-2.610;2023-08-20T02:15:15;101085.98;;;20.75;100.00
55277;BME280;41136;51.478;-2.610;2023-08-20T02:17:40;101088.84;;;20.05;100.00
55277;BME280;41136;51.478;-2.610;2023-08-20T02:20:06;101092.38;;;19.94;100.00
55277;BME280;41136;51.478;-2.610;2023-08-20T02:22:31;101086.26;;;20.12;100.00
55277;BME280;41136;51.478;-2.610;2023-08-20T02:24:56;101092.11;;;19.46;100.00
55277;BME280;41136;51.478;-2.610;2023-08-20T02:27:21;101089.81;;;20.48;100.00
55277;BME280;41136;51.478;-2.610;2023-08-20T02:29:46;101091.60;;;20.72;99.63
55277;BME280;41136;51.478;-2.610;2023-08-20T02:32:12;101092.98;;;20.65;99.56
55277;BME280;41136;51.478;-2.610;2023-08-20T02:34:37;101097.04;;;20.91;99.32
55277;BME280;41136;51.478;-2.610;2023-08-20T02:37:03;101095.80;;;20.50;99.81
55277;BME280;41136;51.478;-2.610;2023-08-20T02:39:28;101097.27;;;20.49;99.92
55277;BME280;41136;51.478;-2.610;2023-08-20T02:41:53;101094.42;;;20.33;100.00
55277;BME280;41136;51.478;-2.610;2023-08-20T02:44:19;101097.97;;;20.34;100.00
55277;BME280;41136;51.478;-2.610;2023-08-20T02:46:44;101095.22;;;20.39;100.00
55277;BME280;41136;51.478;-2.610;2023-08-20T02:49:09;101096.48;;;19.79;100.00
55277;BME280;41136;51.478;-2.610;2023-08-20T02:51:34;101096.39;;;18.95;100.00
55277;BME280;41136;51.478;-2.610;2023-08-20T02:54:00;101094.19;;;19.27;100.00
55277;BME280;41136;51.478;-2.610;2023-08-20T02:56:25;101093.69;;;19.28;100.00
55277;BME280;41136;51.478;-2.610;2023-08-20T02:58:50;101091.82;;;20.31;100.00
55277;BME280;41136;51.478;-2.610;2023-08-20T03:01:20;101089.75;;;20.53;100.00
55277;BME280;41136;51.478;-2.610;2023-08-20T03:03:41;101092.37;;;20.49;100.00
55277;BME280;41136;51.478;-2.610;2023-08-20T03:06:07;101091.58;;;20.71;100.00
55277;BME280;41136;51.478;-2.610;2023-08-20T03:08:32;101090.78;;;20.18;100.00
55277;BME280;41136;51.478;-2.610;2023-08-20T03:10:57;101090.28;;;20.20;100.00
55277;BME280;41136;51.478;-2.610;2023-08-20T03:13:23;101095.16;;;20.06;100.00
55277;BME280;41136;51.478;-2.610;2023-08-20T03:15:48;101097.49;;;19.85;100.00
55277;BME280;41136;51.478;-2.610;2023-08-20T03:18:13;101101.53;;;19.99;100.00
55277;BME280;41136;51.478;-2.610;2023-08-20T03:20:38;101105.98;;;19.57;100.00
55277;BME280;41136;51.478;-2.610;2023-08-20T03:23:04;101106.83;;;19.82;100.00
55277;BME280;41136;51.478;-2.610;2023-08-20T03:28:21;101110.04;;;19.55;100.00
55277;BME280;41136;51.478;-2.610;2023-08-20T03:30:47;101109.64;;;19.71;100.00
55277;BME280;41136;51.478;-2.610;2023-08-20T03:33:12;101103.42;;;19.77;99.64
55277;BME280;41136;51.478;-2.610;2023-08-20T03:35:37;101097.72;;;19.91;99.28
55277;BME280;41136;51.478;-2.610;2023-08-20T03:38:03;101098.68;;;20.21;99.82
55277;BME280;41136;51.478;-2.610;2023-08-20T03:40:28;101103.04;;;20.40;100.00
55277;BME280;41136;51.478;-2.610;2023-08-20T03:42:53;101105.75;;;20.08;100.00
55277;BME280;41136;51.478;-2.610;2023-08-20T03:45:19;101106.78;;;19.49;100.00
55277;BME280;41136;51.478;-2.610;2023-08-20T03:47:44;101115.28;;;19.74;100.00
55277;BME280;41136;51.478;-2.610;2023-08-20T03:50:10;101112.51;;;19.17;100.00
55277;BME280;41136;51.478;-2.610;2023-08-20T03:52:35;101112.15;;;19.49;100.00
55277;BME280;41136;51.478;-2.610;2023-08-20T03:55:00;101111.16;;;19.25;100.00
55277;BME280;41136;51.478;-2.610;2023-08-20T03:57:26;101114.16;;;19.26;100.00
55277;BME280;41136;51.478;-2.610;2023-08-20T03:59:51;101119.26;;;19.44;100.00
55277;BME280;41136;51.478;-2.610;2023-08-20T04:02:16;101119.98;;;19.44;100.00
55277;BME280;41136;51.478;-2.610;2023-08-20T04:04:41;101119.19;;;18.97;100.00
55277;BME280;41136;51.478;-2.610;2023-08-20T04:07:07;101120.71;;;19.39;100.00
55277;BME280;41136;51.478;-2.610;2023-08-20T04:09:32;101124.14;;;19.11;100.00
55277;BME280;41136;51.478;-2.610;2023-08-20T04:11:58;101124.65;;;18.65;100.00
55277;BME280;41136;51.478;-2.610;2023-08-20T04:14:23;101120.88;;;19.25;100.00
55277;BME280;41136;51.478;-2.610;2023-08-20T04:16:48;101116.44;;;18.60;100.00
55277;BME280;41136;51.478;-2.610;2023-08-20T04:19:14;101124.07;;;19.49;100.00
55277;BME280;41136;51.478;-2.610;2023-08-20T04:21:39;101127.58;;;18.99;100.00
55277;BME280;41136;51.478;-2.610;2023-08-20T04:24:05;101128.63;;;18.61;100.00
55277;BME280;41136;51.478;-2.610;2023-08-20T04:26:30;101131.18;;;19.00;100.00
55277;BME280;41136;51.478;-2.610;2023-08-20T04:28:56;101134.69;;;19.19;100.00
55277;BME280;41136;51.478;-2.610;2023-08-20T04:31:21;101133.03;;;18.86;100.00
55277;BME280;41136;51.478;-2.610;2023-08-20T04:33:46;101136.69;;;18.61;100.00
55277;BME280;41136;51.478;-2.610;2023-08-20T04:36:11;101134.86;;;18.80;100.00
55277;BME280;41136;51.478;-2.610;2023-08-20T04:38:36;101142.50;;;19.23;100.00
55277;BME280;41136;51.478;-2.610;2023-08-20T04:41:02;101140.90;;;19.34;100.00
55277;BME280;41136;51.478;-2.610;2023-08-20T04:43:28;101148.41;;;19.62;100.00
55277;BME280;41136;51.478;-2.610;2023-08-20T04:45:54;101149.80;;;19.78;100.00
55277;BME280;41136;51.478;-2.610;2023-08-20T04:48:19;101155.80;;;19.77;100.00
55277;BME280;41136;51.478;-2.610;2023-08-20T04:50:45;101160.52;;;19.33;100.00
55277;BME280;41136;51.478;-2.610;2023-08-20T04:53:10;101162.51;;;19.59;100.00
55277;BME280;41136;51.478;-2.610;2023-08-20T04:55:35;101165.70;;;19.55;100.00
55277;BME280;41136;51.478;-2.610;2023-08-20T04:58:01;101164.81;;;19.50;100.00
55277;BME280;41136;51.478;-2.610;2023-08-20T05:00:26;101169.38;;;19.46;100.00
55277;BME280;41136;51.478;-2.610;2023-08-20T05:02:51;101173.01;;;19.30;100.00
55277;BME280;41136;51.478;-2.610;2023-08-20T05:05:16;101176.64;;;19.01;100.00
55277;BME280;41136;51.478;-2.610;2023-08-20T05:07:42;101173.66;;;19.27;100.00
55277;BME280;41136;51.478;-2.610;2023-08-20T05:10:07;101178.46;;;19.31;100.00
55277;BME280;41136;51.478;-2.610;2023-08-20T05:12:33;101182.79;;;19.50;100.00
55277;BME280;41136;51.478;-2.610;2023-08-20T05:14:59;101184.28;;;19.71;100.00
55277;BME280;41136;51.478;-2.610;2023-08-20T05:17:24;101185.06;;;19.31;100.00
55277;BME280;41136;51.478;-2.610;2023-08-20T05:19:49;101190.25;;;18.84;100.00
55277;BME280;41136;51.478;-2.610;2023-08-20T05:22:14;101189.81;;;18.70;100.00
55277;BME280;41136;51.478;-2.610;2023-08-20T05:24:39;101190.39;;;19.13;100.00
55277;BME280;41136;51.478;-2.610;2023-08-20T05:27:07;101191.17;;;19.41;100.00
55277;BME280;41136;51.478;-2.610;2023-08-20T05:29:30;101194.44;;;19.71;100.00
55277;BME280;41136;51.478;-2.610;2023-08-20T05:31:56;101194.58;;;19.69;100.00
55277;BME280;41136;51.478;-2.610;2023-08-20T05:34:21;101194.33;;;19.64;100.00
55277;BME280;41136;51.478;-2.610;2023-08-20T05:36:46;101199.41;;;18.86;100.00
55277;BME280;41136;51.478;-2.610;2023-08-20T05:39:12;101196.56;;;19.15;100.00
55277;BME280;41136;51.478;-2.610;2023-08-20T05:41:37;101199.21;;;19.46;100.00
55277;BME280;41136;51.478;-2.610;2023-08-20T05:44:04;101197.34;;;19.24;100.00
55277;BME280;41136;51.478;-2.610;2023-08-20T05:46:28;101190.04;;;19.36;100.00
55277;BME280;41136;51.478;-2.610;2023-08-20T05:48:54;101188.89;;;19.56;100.00
55277;BME280;41136;51.478;-2.610;2023-08-20T05:51:19;101191.31;;;19.40;100.00
55277;BME280;41136;51.478;-2.610;2023-08-20T05:53:44;101195.53;;;19.55;100.00
55277;BME280;41136;51.478;-2.610;2023-08-20T05:56:09;101197.00;;;19.80;100.00
55277;BME280;41136;51.478;-2.610;2023-08-20T05:58:34;101198.35;;;19.79;100.00
55277;BME280;41136;51.478;-2.610;2023-08-20T06:01:00;101202.70;;;19.87;100.00
55277;BME280;41136;51.478;-2.610;2023-08-20T06:03:25;101206.06;;;19.86;100.00
55277;BME280;41136;51.478;-2.610;2023-08-20T06:05:50;101206.15;;;19.86;100.00
55277;BME280;41136;51.478;-2.610;2023-08-20T06:08:16;101208.25;;;19.35;100.00
55277;BME280;41136;51.478;-2.610;2023-08-20T06:10:41;101210.51;;;19.55;100.00
55277;BME280;41136;51.478;-2.610;2023-08-20T06:13:06;101214.28;;;19.11;100.00
55277;BME280;41136;51.478;-2.610;2023-08-20T06:15:31;101214.90;;;19.78;100.00
55277;BME280;41136;51.478;-2.610;2023-08-20T06:17:57;101216.91;;;19.92;100.00
55277;BME280;41136;51.478;-2.610;2023-08-20T06:20:22;101215.43;;;19.48;100.00
55277;BME280;41136;51.478;-2.610;2023-08-20T06:22:47;101218.22;;;20.06;100.00
55277;BME280;41136;51.478;-2.610;2023-08-20T06:25:13;101220.59;;;19.93;100.00
55277;BME280;41136;51.478;-2.610;2023-08-20T06:27:38;101224.75;;;19.49;100.00
55277;BME280;41136;51.478;-2.610;2023-08-20T06:30:04;101228.84;;;19.69;100.00
55277;BME280;41136;51.478;-2.610;2023-08-20T06:32:28;101228.27;;;19.50;100.00
55277;BME280;41136;51.478;-2.610;2023-08-20T06:34:54;101232.14;;;18.32;100.00
55277;BME280;41136;51.478;-2.610;2023-08-20T06:37:19;101227.26;;;19.29;100.00
55277;BME280;41136;51.478;-2.610;2023-08-20T06:39:44;101231.28;;;18.63;100.00
55277;BME280;41136;51.478;-2.610;2023-08-20T06:42:10;101234.68;;;18.61;100.00
55277;BME280;41136;51.478;-2.610;2023-08-20T06:44:35;101237.09;;;18.63;100.00
55277;BME280;41136;51.478;-2.610;2023-08-20T06:47:01;101238.42;;;18.50;100.00
55277;BME280;41136;51.478;-2.610;2023-08-20T06:49:26;101240.64;;;18.26;100.00
55277;BME280;41136;51.478;-2.610;2023-08-20T06:51:51;101240.39;;;18.84;100.00
55277;BME280;41136;51.478;-2.610;2023-08-20T06:54:17;101248.00;;;17.99;100.00
55277;BME280;41136;51.478;-2.610;2023-08-20T06:56:42;101254.27;;;18.34;100.00
55277;BME280;41136;51.478;-2.610;2023-08-20T06:59:08;101254.87;;;18.86;100.00
55277;BME280;41136;51.478;-2.610;2023-08-20T07:01:33;101257.64;;;18.69;100.00
55277;BME280;41136;51.478;-2.610;2023-08-20T07:03:58;101256.49;;;18.97;100.00
55277;BME280;41136;51.478;-2.610;2023-08-20T07:06:24;101256.50;;;19.29;100.00
55277;BME280;41136;51.478;-2.610;2023-08-20T07:08:49;101253.57;;;19.60;100.00
55277;BME280;41136;51.478;-2.610;2023-08-20T07:11:14;101254.46;;;19.73;100.00
55277;BME280;41136;51.478;-2.610;2023-08-20T07:13:39;101261.36;;;18.93;100.00
55277;BME280;41136;51.478;-2.610;2023-08-20T07:16:04;101259.24;;;19.40;100.00
55277;BME280;41136;51.478;-2.610;2023-08-20T07:18:30;101262.14;;;19.29;100.00
55277;BME280;41136;51.478;-2.610;2023-08-20T07:20:55;101270.35;;;19.18;100.00
55277;BME280;41136;51.478;-2.610;2023-08-20T07:23:20;101269.82;;;18.93;100.00
55277;BME280;41136;51.478;-2.610;2023-08-20T07:25:46;101269.22;;;19.29;100.00
55277;BME280;41136;51.478;-2.610;2023-08-20T07:28:11;101273.60;;;19.25;100.00
55277;BME280;41136;51.478;-2.610;2023-08-20T07:30:36;101271.22;;;19.62;100.00
55277;BME280;41136;51.478;-2.610;2023-08-20T07:33:02;101273.69;;;20.77;100.00
55277;BME280;41136;51.478;-2.610;2023-08-20T07:35:26;101272.33;;;20.92;100.00
55277;BME280;41136;51.478;-2.610;2023-08-20T07:37:52;101278.76;;;20.73;100.00
55277;BME280;41136;51.478;-2.610;2023-08-20T07:40:17;101284.76;;;20.12;100.00
55277;BME280;41136;51.478;-2.610;2023-08-20T07:42:43;101285.48;;;20.56;100.00
55277;BME280;41136;51.478;-2.610;2023-08-20T07:45:09;101283.74;;;21.13;100.00
55277;BME280;41136;51.478;-2.610;2023-08-20T07:47:33;101287.88;;;20.30;100.00
55277;BME280;41136;51.478;-2.610;2023-08-20T07:49:58;101287.22;;;19.62;100.00
55277;BME280;41136;51.478;-2.610;2023-08-20T07:52:23;101294.71;;;18.88;100.00
55277;BME280;41136;51.478;-2.610;2023-08-20T07:54:48;101293.81;;;20.89;100.00
55277;BME280;41136;51.478;-2.610;2023-08-20T07:57:14;101293.51;;;20.75;100.00
55277;BME280;41136;51.478;-2.610;2023-08-20T07:59:39;101296.31;;;20.29;100.00
55277;BME280;41136;51.478;-2.610;2023-08-20T08:02:05;101297.36;;;20.17;100.00
55277;BME280;41136;51.478;-2.610;2023-08-20T08:04:30;101304.61;;;20.25;100.00
55277;BME280;41136;51.478;-2.610;2023-08-20T08:06:55;101302.78;;;20.51;100.00
55277;BME280;41136;51.478;-2.610;2023-08-20T08:09:26;101303.99;;;20.01;100.00
55277;BME280;41136;51.478;-2.610;2023-08-20T08:11:46;101303.91;;;19.64;100.00
55277;BME280;41136;51.478;-2.610;2023-08-20T08:14:11;101307.63;;;20.35;100.00
55277;BME280;41136;51.478;-2.610;2023-08-20T08:16:36;101310.99;;;20.16;100.00
55277;BME280;41136;51.478;-2.610;2023-08-20T08:19:02;101311.18;;;19.81;100.00
55277;BME280;41136;51.478;-2.610;2023-08-20T08:21:27;101306.85;;;19.84;100.00
55277;BME280;41136;51.478;-2.610;2023-08-20T08:23:52;101310.30;;;19.84;100.00
55277;BME280;41136;51.478;-2.610;2023-08-20T08:26:18;101318.07;;;19.27;100.00
55277;BME280;41136;51.478;-2.610;2023-08-20T08:28:43;101314.55;;;19.89;100.00
55277;BME280;41136;51.478;-2.610;2023-08-20T08:31:08;101312.81;;;19.91;100.00
55277;BME280;41136;51.478;-2.610;2023-08-20T08:33:33;101311.07;;;19.82;100.00
55277;BME280;41136;51.478;-2.610;2023-08-20T08:35:58;101315.94;;;20.29;100.00
55277;BME280;41136;51.478;-2.610;2023-08-20T08:38:23;101316.95;;;20.78;100.00
55277;BME280;41136;51.478;-2.610;2023-08-20T08:40:49;101316.59;;;20.70;100.00
55277;BME280;41136;51.478;-2.610;2023-08-20T08:43:14;101317.09;;;20.22;100.00
55277;BME280;41136;51.478;-2.610;2023-08-20T08:45:39;101318.27;;;20.24;100.00
55277;BME280;41136;51.478;-2.610;2023-08-20T08:48:05;101312.52;;;19.97;100.00
55277;BME280;41136;51.478;-2.610;2023-08-20T08:50:31;101315.18;;;19.80;100.00
55277;BME280;41136;51.478;-2.610;2023-08-20T08:52:55;101314.45;;;20.34;100.00
55277;BME280;41136;51.478;-2.610;2023-08-20T08:55:20;101317.08;;;20.75;100.00
55277;BME280;41136;51.478;-2.610;2023-08-20T08:57:45;101319.66;;;20.15;100.00
55277;BME280;41136;51.478;-2.610;2023-08-20T09:00:12;101324.06;;;20.28;100.00
55277;BME280;41136;51.478;-2.610;2023-08-20T09:02:36;101321.90;;;21.08;100.00
55277;BME280;41136;51.478;-2.610;2023-08-20T09:05:01;101320.01;;;21.03;100.00
55277;BME280;41136;51.478;-2.610;2023-08-20T09:07:26;101320.59;;;20.92;100.00
55277;BME280;41136;51.478;-2.610;2023-08-20T09:09:57;101324.17;;;20.47;100.00
55277;BME280;41136;51.478;-2.610;2023-08-20T09:12:18;101325.80;;;22.11;100.00
55277;BME280;41136;51.478;-2.610;2023-08-20T09:14:45;101324.96;;;21.87;100.00
55277;BME280;41136;51.478;-2.610;2023-08-20T09:17:07;101323.99;;;22.72;98.50
55277;BME280;41136;51.478;-2.610;2023-08-20T09:19:35;101325.01;;;22.61;94.41
55277;BME280;41136;51.478;-2.610;2023-08-20T09:21:58;101324.85;;;22.96;94.74
55277;BME280;41136;51.478;-2.610;2023-08-20T09:24:26;101325.11;;;22.59;95.30
55277;BME280;41136;51.478;-2.610;2023-08-20T09:26:48;101322.04;;;23.57;93.95
55277;BME280;41136;51.478;-2.610;2023-08-20T09:29:13;101317.69;;;21.64;95.50
55277;BME280;41136;51.478;-2.610;2023-08-20T09:31:39;101313.33;;;22.97;94.53
55277;BME280;41136;51.478;-2.610;2023-08-20T09:34:04;101312.21;;;22.31;94.15
55277;BME280;41136;51.478;-2.610;2023-08-20T09:36:31;101308.37;;;21.95;94.94
55277;BME280;41136;51.478;-2.610;2023-08-20T09:38:54;101308.27;;;22.75;93.39
55277;BME280;41136;51.478;-2.610;2023-08-20T09:41:19;101303.60;;;21.61;96.15
55277;BME280;41136;51.478;-2.610;2023-08-20T09:43:45;101303.75;;;22.60;96.43
55277;BME280;41136;51.478;-2.610;2023-08-20T09:46:11;101307.89;;;23.35;95.81
55277;BME280;41136;51.478;-2.610;2023-08-20T09:48:38;101307.86;;;23.36;91.78
55277;BME280;41136;51.478;-2.610;2023-08-20T09:51:04;101313.27;;;23.11;92.31
55277;BME280;41136;51.478;-2.610;2023-08-20T09:53:27;101312.02;;;23.88;90.13
55277;BME280;41136;51.478;-2.610;2023-08-20T09:55:52;101313.49;;;24.24;89.24
55277;BME280;41136;51.478;-2.610;2023-08-20T09:58:17;101310.89;;;23.22;89.29
55277;BME280;41136;51.478;-2.610;2023-08-20T10:00:43;101307.68;;;24.22;90.38
55277;BME280;41136;51.478;-2.610;2023-08-20T10:03:07;101307.20;;;24.75;86.36
55277;BME280;41136;51.478;-2.610;2023-08-20T10:05:33;101302.07;;;24.17;86.78
55277;BME280;41136;51.478;-2.610;2023-08-20T10:07:59;101300.02;;;24.94;83.70
55277;BME280;41136;51.478;-2.610;2023-08-20T10:10:24;101299.39;;;25.33;82.87
55277;BME280;41136;51.478;-2.610;2023-08-20T10:12:48;101301.04;;;25.54;81.56
55277;BME280;41136;51.478;-2.610;2023-08-20T10:15:14;101299.61;;;26.01;83.76
55277;BME280;41136;51.478;-2.610;2023-08-20T10:17:41;101296.05;;;26.18;81.48
55277;BME280;41136;51.478;-2.610;2023-08-20T10:20:05;101296.14;;;26.27;78.26
55277;BME280;41136;51.478;-2.610;2023-08-20T10:22:33;101296.43;;;25.49;79.75
55277;BME280;41136;51.478;-2.610;2023-08-20T10:24:54;101295.99;;;25.43;80.19
55277;BME280;41136;51.478;-2.610;2023-08-20T10:27:24;101298.24;;;25.72;79.83
55277;BME280;41136;51.478;-2.610;2023-08-20T10:29:45;101293.57;;;25.58;79.77
55277;BME280;41136;51.478;-2.610;2023-08-20T10:32:11;101300.77;;;24.42;80.57
55277;BME280;41136;51.478;-2.610;2023-08-20T10:34:36;101294.31;;;25.51;78.54
55277;BME280;41136;51.478;-2.610;2023-08-20T10:37:02;101294.83;;;26.21;74.74
55277;BME280;41136;51.478;-2.610;2023-08-20T10:39:25;101295.23;;;25.97;75.76
55277;BME280;41136;51.478;-2.610;2023-08-20T10:44:16;101293.84;;;26.02;76.52
55277;BME280;41136;51.478;-2.610;2023-08-20T10:46:49;101293.70;;;26.45;74.05
55277;BME280;41136;51.478;-2.610;2023-08-20T10:49:06;101296.99;;;26.01;73.01
55277;BME280;41136;51.478;-2.610;2023-08-20T10:51:33;101300.79;;;25.96;72.56
55277;BME280;41136;51.478;-2.610;2023-08-20T10:54:02;101301.54;;;25.58;73.09
55277;BME280;41136;51.478;-2.610;2023-08-20T10:56:22;101298.18;;;26.04;75.49
55277;BME280;41136;51.478;-2.610;2023-08-20T10:58:47;101299.18;;;25.43;76.43
55277;BME280;41136;51.478;-2.610;2023-08-20T11:01:13;101298.12;;;24.51;77.69
55277;BME280;41136;51.478;-2.610;2023-08-20T11:03:37;101294.63;;;24.22;80.99
55277;BME280;41136;51.478;-2.610;2023-08-20T11:06:03;101289.37;;;25.46;76.73
55277;BME280;41136;51.478;-2.610;2023-08-20T11:08:28;101288.21;;;24.98;76.93
55277;BME280;41136;51.478;-2.610;2023-08-20T11:10:53;101287.32;;;24.65;80.40
55277;BME280;41136;51.478;-2.610;2023-08-20T11:13:19;101285.69;;;25.41;79.00
55277;BME280;41136;51.478;-2.610;2023-08-20T11:15:43;101281.53;;;25.73;77.29
55277;BME280;41136;51.478;-2.610;2023-08-20T11:18:09;101276.53;;;25.32;78.11
55277;BME280;41136;51.478;-2.610;2023-08-20T11:20:34;101280.27;;;25.58;78.23
55277;BME280;41136;51.478;-2.610;2023-08-20T11:22:59;101279.87;;;25.51;79.06
55277;BME280;41136;51.478;-2.610;2023-08-20T11:25:24;101278.56;;;25.06;77.90
55277;BME280;41136;51.478;-2.610;2023-08-20T11:27:51;101281.82;;;24.13;80.73
55277;BME280;41136;51.478;-2.610;2023-08-20T11:30:15;101279.98;;;24.77;78.97
55277;BME280;41136;51.478;-2.610;2023-08-20T11:32:40;101276.50;;;25.35;75.67
55277;BME280;41136;51.478;-2.610;2023-08-20T11:35:06;101275.58;;;25.43;76.66
55277;BME280;41136;51.478;-2.610;2023-08-20T11:37:30;101276.21;;;24.82;74.94
55277;BME280;41136;51.478;-2.610;2023-08-20T11:39:55;101280.02;;;24.03;77.28
55277;BME280;41136;51.478;-2.610;2023-08-20T11:42:22;101282.49;;;24.56;78.31
55277;BME280;41136;51.478;-2.610;2023-08-20T11:44:47;101282.37;;;24.18;79.17
55277;BME280;41136;51.478;-2.610;2023-08-20T11:47:15;101283.82;;;23.92;80.80
55277;BME280;41136;51.478;-2.610;2023-08-20T11:49:36;101279.08;;;23.68;87.53
55277;BME280;41136;51.478;-2.610;2023-08-20T11:52:01;101279.44;;;25.61;87.70
55277;BME280;41136;51.478;-2.610;2023-08-20T11:54:27;101279.26;;;25.16;86.38
55277;BME280;41136;51.478;-2.610;2023-08-20T11:56:52;101284.39;;;25.32;83.10
55277;BME280;41136;51.478;-2.610;2023-08-20T11:59:19;101294.67;;;24.18;84.49
55277;BME280;41136;51.478;-2.610;2023-08-20T12:01:43;101295.29;;;24.57;81.55
55277;BME280;41136;51.478;-2.610;2023-08-20T12:04:09;101300.54;;;24.90;80.11
55277;BME280;41136;51.478;-2.610;2023-08-20T12:06:34;101302.81;;;23.66;83.32
55277;BME280;41136;51.478;-2.610;2023-08-20T12:08:58;101304.40;;;24.18;83.30
55277;BME280;41136;51.478;-2.610;2023-08-20T12:11:24;101314.56;;;23.08;88.20
55277;BME280;41136;51.478;-2.610;2023-08-20T12:13:48;101316.59;;;23.02;86.73
55277;BME280;41136;51.478;-2.610;2023-08-20T12:16:14;101316.75;;;23.75;85.23
55277;BME280;41136;51.478;-2.610;2023-08-20T12:18:39;101327.85;;;23.20;87.28
55277;BME280;41136;51.478;-2.610;2023-08-20T12:21:04;101329.80;;;22.66;88.89
55277;BME280;41136;51.478;-2.610;2023-08-20T12:23:29;101331.30;;;21.95;91.28
55277;BME280;41136;51.478;-2.610;2023-08-20T12:25:54;101340.55;;;21.44;95.87
55277;BME280;41136;51.478;-2.610;2023-08-20T12:28:20;101346.21;;;21.46;99.34
55277;BME280;41136;51.478;-2.610;2023-08-20T12:30:45;101355.33;;;20.88;100.00
55277;BME280;41136;51.478;-2.610;2023-08-20T12:33:10;101357.86;;;20.44;100.00